sensor_id;sensor_type;location;lat;lon;timestamp;P1;durP1;ratioP1;P2;durP2;ratioP2
30398;SDS011;17195;50.838;7.214;2024-03-23T00:54:52;14.38;;;6.15;;
30398;SDS011;17195;50.838;7.214;2024-03-23T00:57:17;10.43;;;5.63;;
30398;SDS011;17195;50.838;7.214;2024-03-23T00:59:43;11.85;;;6.13;;
30398;SDS011;17195;50.838;7.214;2024-03-23T01:02:08;10.73;;;6.00;;
30398;SDS011;17195;50.838;7.214;2024-03-23T01:04:34;15.93;;;5.93;;
30398;SDS011;17195;50.838;7.214;2024-03-23T01:06:59;15.77;;;6.63;;
30398;SDS011;17195;50.838;7.214;2024-03-23T01:09:25;11.70;;;6.90;;
30398;SDS011;17195;50.838;7.214;2024-03-23T01:11:50;13.73;;;6.97;;
30398;SDS011;17195;50.838;7.214;2024-03-23T01:14:16;18.42;;;8.90;;
30398;SDS011;17195;50.838;7.214;2024-03-23T01:16:41;17.52;;;8.77;;
30398;SDS011;17195;50.838;7.214;2024-03-23T01:19:07;19.38;;;8.57;;
30398;SDS011;17195;50.838;7.214;2024-03-23T01:21:32;19.73;;;9.38;;
30398;SDS011;17195;50.838;7.214;2024-03-23T01:23:58;15.32;;;8.50;;
30398;SDS011;17195;50.838;7.214;2024-03-23T01:26:23;16.10;;;9.27;;
30398;SDS011;17195;50.838;7.214;2024-03-23T01:28:49;19.73;;;9.70;;
30398;SDS011;17195;50.838;7.214;2024-03-23T01:31:14;20.25;;;9.80;;
30398;SDS011;17195;50.838;7.214;2024-03-23T01:33:41;15.52;;;8.93;;
30398;SDS011;17195;50.838;7.214;2024-03-23T01:36:06;22.52;;;10.25;;
30398;SDS011;17195;50.838;7.214;2024-03-23T01:38:32;18.08;;;9.30;;
30398;SDS011;17195;50.838;7.214;2024-03-23T01:40:57;18.05;;;9.38;;
30398;SDS011;17195;50.838;7.214;2024-03-23T01:43:23;17.92;;;9.25;;
30398;SDS011;17195;50.838;7.214;2024-03-23T01:45:48;18.48;;;9.02;;
30398;SDS011;17195;50.838;7.214;2024-03-23T01:48:14;16.60;;;7.95;;
30398;SDS011;17195;50.838;7.214;2024-03-23T01:50:40;19.48;;;8.10;;
30398;SDS011;17195;50.838;7.214;2024-03-23T01:53:06;13.40;;;7.50;;
30398;SDS011;17195;50.838;7.214;2024-03-23T01:55:32;16.70;;;7.68;;
30398;SDS011;17195;50.838;7.214;2024-03-23T01:57:58;17.77;;;8.90;;
30398;SDS011;17195;50.838;7.214;2024-03-23T02:00:23;16.38;;;8.85;;
30398;SDS011;17195;50.838;7.214;2024-03-23T02:02:49;19.67;;;8.48;;
30398;SDS011;17195;50.838;7.214;2024-03-23T02:05:15;17.92;;;8.73;;
30398;SDS011;17195;50.838;7.214;2024-03-23T02:07:41;17.40;;;8.45;;
30398;SDS011;17195;50.838;7.214;2024-03-23T02:10:08;20.60;;;8.45;;
30398;SDS011;17195;50.838;7.214;2024-03-23T02:12:40;16.92;;;7.72;;
30398;SDS011;17195;50.838;7.214;2024-03-23T02:15:06;20.15;;;7.47;;
30398;SDS011;17195;50.838;7.214;2024-03-23T02:17:34;15.00;;;6.43;;
30398;SDS011;17195;50.838;7.214;2024-03-23T02:20:00;12.25;;;5.72;;
30398;SDS011;17195;50.838;7.214;2024-03-23T02:22:38;12.85;;;5.47;;
30398;SDS011;17195;50.838;7.214;2024-03-23T02:25:05;15.52;;;6.15;;
30398;SDS011;17195;50.838;7.214;2024-03-23T02:27:31;12.07;;;5.38;;
30398;SDS011;17195;50.838;7.214;2024-03-23T02:29:57;11.43;;;4.55;;
30398;SDS011;17195;50.838;7.214;2024-03-23T02:32:23;13.82;;;5.22;;
30398;SDS011;17195;50.838;7.214;2024-03-23T02:34:48;13.63;;;5.60;;
30398;SDS011;17195;50.838;7.214;2024-03-23T02:37:14;10.90;;;4.07;;
30398;SDS011;17195;50.838;7.214;2024-03-23T02:39:39;16.25;;;5.38;;
30398;SDS011;17195;50.838;7.214;2024-03-23T02:42:05;11.23;;;5.55;;
30398;SDS011;17195;50.838;7.214;2024-03-23T02:44:31;13.27;;;4.78;;
30398;SDS011;17195;50.838;7.214;2024-03-23T02:46:56;13.73;;;4.70;;
30398;SDS011;17195;50.838;7.214;2024-03-23T02:49:22;15.38;;;3.85;;
30398;SDS011;17195;50.838;7.214;2024-03-23T02:51:48;12.10;;;4.07;;
30398;SDS011;17195;50.838;7.214;2024-03-23T02:54:14;12.10;;;3.65;;
30398;SDS011;17195;50.838;7.214;2024-03-23T02:56:39;12.60;;;3.60;;
30398;SDS011;17195;50.838;7.214;2024-03-23T02:59:05;8.18;;;3.20;;
30398;SDS011;17195;50.838;7.214;2024-03-23T03:01:30;12.10;;;3.40;;
30398;SDS011;17195;50.838;7.214;2024-03-23T03:03:56;14.30;;;3.40;;
30398;SDS011;17195;50.838;7.214;2024-03-23T03:06:22;7.53;;;3.22;;
30398;SDS011;17195;50.838;7.214;2024-03-23T03:08:49;16.98;;;3.92;;
30398;SDS011;17195;50.838;7.214;2024-03-23T03:11:15;9.23;;;3.33;;
30398;SDS011;17195;50.838;7.214;2024-03-23T03:13:40;12.85;;;3.65;;
30398;SDS011;17195;50.838;7.214;2024-03-23T03:16:08;13.02;;;3.88;;
30398;SDS011;17195;50.838;7.214;2024-03-23T03:18:35;8.77;;;2.88;;
30398;SDS011;17195;50.838;7.214;2024-03-23T03:21:00;11.60;;;2.92;;
30398;SDS011;17195;50.838;7.214;2024-03-23T03:23:26;13.07;;;3.47;;
30398;SDS011;17195;50.838;7.214;2024-03-23T03:25:52;10.13;;;2.88;;
30398;SDS011;17195;50.838;7.214;2024-03-23T03:28:17;14.23;;;2.97;;
30398;SDS011;17195;50.838;7.214;2024-03-23T03:30:43;10.50;;;3.20;;
30398;SDS011;17195;50.838;7.214;2024-03-23T03:33:09;9.20;;;1.88;;
30398;SDS011;17195;50.838;7.214;2024-03-23T03:35:35;8.82;;;1.70;;
30398;SDS011;17195;50.838;7.214;2024-03-23T03:38:02;10.10;;;1.80;;
30398;SDS011;17195;50.838;7.214;2024-03-23T03:40:29;11.82;;;1.77;;
30398;SDS011;17195;50.838;7.214;2024-03-23T03:42:55;10.18;;;2.00;;
30398;SDS011;17195;50.838;7.214;2024-03-23T03:45:21;7.18;;;1.55;;
30398;SDS011;17195;50.838;7.214;2024-03-23T03:47:46;8.48;;;1.75;;
30398;SDS011;17195;50.838;7.214;2024-03-23T03:50:12;9.77;;;1.65;;
30398;SDS011;17195;50.838;7.214;2024-03-23T03:52:37;8.07;;;1.70;;
30398;SDS011;17195;50.838;7.214;2024-03-23T03:55:03;9.52;;;1.88;;
30398;SDS011;17195;50.838;7.214;2024-03-23T03:57:36;10.20;;;2.03;;
30398;SDS011;17195;50.838;7.214;2024-03-23T04:00:01;11.80;;;1.75;;
30398;SDS011;17195;50.838;7.214;2024-03-23T04:02:28;8.38;;;2.10;;
30398;SDS011;17195;50.838;7.214;2024-03-23T04:04:54;9.77;;;1.83;;
30398;SDS011;17195;50.838;7.214;2024-03-23T04:07:19;11.30;;;2.22;;
30398;SDS011;17195;50.838;7.214;2024-03-23T04:09:47;10.20;;;1.58;;
30398;SDS011;17195;50.838;7.214;2024-03-23T04:12:13;6.78;;;1.60;;
30398;SDS011;17195;50.838;7.214;2024-03-23T04:14:39;7.68;;;1.70;;
30398;SDS011;17195;50.838;7.214;2024-03-23T04:17:04;9.88;;;1.95;;
30398;SDS011;17195;50.838;7.214;2024-03-23T04:19:30;11.30;;;2.30;;
30398;SDS011;17195;50.838;7.214;2024-03-23T04:21:55;10.43;;;2.75;;
30398;SDS011;17195;50.838;7.214;2024-03-23T04:24:21;9.00;;;1.88;;
30398;SDS011;17195;50.838;7.214;2024-03-23T04:26:47;10.30;;;2.47;;
30398;SDS011;17195;50.838;7.214;2024-03-23T04:29:13;10.00;;;2.13;;
30398;SDS011;17195;50.838;7.214;2024-03-23T04:31:38;11.35;;;2.50;;
30398;SDS011;17195;50.838;7.214;2024-03-23T04:34:04;11.80;;;2.42;;
30398;SDS011;17195;50.838;7.214;2024-03-23T04:36:30;9.82;;;2.50;;
30398;SDS011;17195;50.838;7.214;2024-03-23T04:38:59;11.00;;;2.83;;
30398;SDS011;17195;50.838;7.214;2024-03-23T04:41:25;11.30;;;2.30;;
30398;SDS011;17195;50.838;7.214;2024-03-23T04:43:51;9.82;;;2.60;;
30398;SDS011;17195;50.838;7.214;2024-03-23T04:46:17;12.10;;;3.30;;
30398;SDS011;17195;50.838;7.214;2024-03-23T04:48:42;14.35;;;3.00;;
30398;SDS011;17195;50.838;7.214;2024-03-23T04:51:09;10.10;;;2.72;;
30398;SDS011;17195;50.838;7.214;2024-03-23T04:53:37;13.65;;;2.90;;
30398;SDS011;17195;50.838;7.214;2024-03-23T04:56:03;10.02;;;2.83;;
30398;SDS011;17195;50.838;7.214;2024-03-23T04:58:29;12.55;;;3.20;;
30398;SDS011;17195;50.838;7.214;2024-03-23T05:00:58;13.55;;;3.42;;
30398;SDS011;17195;50.838;7.214;2024-03-23T05:03:23;11.82;;;4.38;;
30398;SDS011;17195;50.838;7.214;2024-03-23T05:05:49;11.02;;;2.92;;
30398;SDS011;17195;50.838;7.214;2024-03-23T05:08:15;12.40;;;3.03;;
30398;SDS011;17195;50.838;7.214;2024-03-23T05:10:41;12.27;;;3.72;;
30398;SDS011;17195;50.838;7.214;2024-03-23T05:13:07;14.52;;;3.90;;
30398;SDS011;17195;50.838;7.214;2024-03-23T05:15:33;11.10;;;3.42;;
30398;SDS011;17195;50.838;7.214;2024-03-23T05:17:58;16.30;;;3.83;;
30398;SDS011;17195;50.838;7.214;2024-03-23T05:20:24;12.13;;;3.63;;
30398;SDS011;17195;50.838;7.214;2024-03-23T05:22:49;16.70;;;3.60;;
30398;SDS011;17195;50.838;7.214;2024-03-23T05:25:15;12.00;;;3.47;;
30398;SDS011;17195;50.838;7.214;2024-03-23T05:27:41;13.65;;;3.45;;
30398;SDS011;17195;50.838;7.214;2024-03-23T05:30:07;14.60;;;3.33;;
30398;SDS011;17195;50.838;7.214;2024-03-23T05:32:34;17.08;;;3.70;;
30398;SDS011;17195;50.838;7.214;2024-03-23T05:34:59;21.08;;;5.03;;
30398;SDS011;17195;50.838;7.214;2024-03-23T05:37:25;11.00;;;2.50;;
30398;SDS011;17195;50.838;7.214;2024-03-23T05:39:51;17.25;;;3.88;;
30398;SDS011;17195;50.838;7.214;2024-03-23T05:42:16;13.65;;;2.70;;
30398;SDS011;17195;50.838;7.214;2024-03-23T05:44:43;13.50;;;2.50;;
30398;SDS011;17195;50.838;7.214;2024-03-23T05:47:10;11.38;;;2.28;;
30398;SDS011;17195;50.838;7.214;2024-03-23T05:49:36;18.42;;;3.08;;
30398;SDS011;17195;50.838;7.214;2024-03-23T05:52:02;12.75;;;2.50;;
30398;SDS011;17195;50.838;7.214;2024-03-23T05:54:29;14.90;;;3.00;;
30398;SDS011;17195;50.838;7.214;2024-03-23T05:56:55;13.77;;;3.28;;
30398;SDS011;17195;50.838;7.214;2024-03-23T05:59:20;12.02;;;3.08;;
30398;SDS011;17195;50.838;7.214;2024-03-23T06:01:46;12.13;;;3.13;;
30398;SDS011;17195;50.838;7.214;2024-03-23T06:04:12;17.67;;;3.92;;
30398;SDS011;17195;50.838;7.214;2024-03-23T06:06:38;12.30;;;3.78;;
30398;SDS011;17195;50.838;7.214;2024-03-23T06:09:04;14.32;;;3.60;;
30398;SDS011;17195;50.838;7.214;2024-03-23T06:11:30;18.58;;;4.50;;
30398;SDS011;17195;50.838;7.214;2024-03-23T06:13:56;12.93;;;4.35;;
30398;SDS011;17195;50.838;7.214;2024-03-23T06:16:21;16.38;;;3.13;;
30398;SDS011;17195;50.838;7.214;2024-03-23T06:18:49;14.13;;;2.75;;
30398;SDS011;17195;50.838;7.214;2024-03-23T06:21:15;16.90;;;3.10;;
30398;SDS011;17195;50.838;7.214;2024-03-23T06:23:41;11.50;;;2.60;;
30398;SDS011;17195;50.838;7.214;2024-03-23T06:26:07;15.65;;;3.10;;
30398;SDS011;17195;50.838;7.214;2024-03-23T06:28:33;9.98;;;3.17;;
30398;SDS011;17195;50.838;7.214;2024-03-23T06:30:59;18.58;;;2.67;;
30398;SDS011;17195;50.838;7.214;2024-03-23T06:33:25;14.52;;;2.08;;
30398;SDS011;17195;50.838;7.214;2024-03-23T06:35:51;7.88;;;2.50;;
30398;SDS011;17195;50.838;7.214;2024-03-23T06:38:17;9.00;;;2.15;;
30398;SDS011;17195;50.838;7.214;2024-03-23T06:40:43;9.45;;;2.33;;
30398;SDS011;17195;50.838;7.214;2024-03-23T06:43:12;11.10;;;2.60;;
30398;SDS011;17195;50.838;7.214;2024-03-23T06:45:38;15.77;;;2.85;;
30398;SDS011;17195;50.838;7.214;2024-03-23T06:48:04;10.20;;;2.15;;
30398;SDS011;17195;50.838;7.214;2024-03-23T06:50:32;14.50;;;2.83;;
30398;SDS011;17195;50.838;7.214;2024-03-23T06:52:58;12.82;;;3.13;;
30398;SDS011;17195;50.838;7.214;2024-03-23T06:55:24;9.82;;;2.40;;
30398;SDS011;17195;50.838;7.214;2024-03-23T06:57:51;12.23;;;2.67;;
30398;SDS011;17195;50.838;7.214;2024-03-23T07:00:17;16.05;;;2.95;;
30398;SDS011;17195;50.838;7.214;2024-03-23T07:02:43;15.15;;;2.92;;
30398;SDS011;17195;50.838;7.214;2024-03-23T07:05:09;12.43;;;3.88;;
30398;SDS011;17195;50.838;7.214;2024-03-23T07:07:35;15.43;;;3.45;;
30398;SDS011;17195;50.838;7.214;2024-03-23T07:10:01;19.88;;;3.75;;
30398;SDS011;17195;50.838;7.214;2024-03-23T07:12:28;11.02;;;2.58;;
30398;SDS011;17195;50.838;7.214;2024-03-23T07:14:53;15.23;;;2.97;;
30398;SDS011;17195;50.838;7.214;2024-03-23T07:17:19;14.23;;;3.67;;
30398;SDS011;17195;50.838;7.214;2024-03-23T07:19:46;15.63;;;3.45;;
30398;SDS011;17195;50.838;7.214;2024-03-23T07:22:11;15.07;;;3.03;;
30398;SDS011;17195;50.838;7.214;2024-03-23T07:24:38;13.85;;;3.40;;
30398;SDS011;17195;50.838;7.214;2024-03-23T07:27:04;20.10;;;3.40;;
30398;SDS011;17195;50.838;7.214;2024-03-23T07:29:29;17.38;;;3.95;;
30398;SDS011;17195;50.838;7.214;2024-03-23T07:31:55;18.33;;;3.70;;
30398;SDS011;17195;50.838;7.214;2024-03-23T07:34:21;13.77;;;3.22;;
30398;SDS011;17195;50.838;7.214;2024-03-23T07:36:46;17.70;;;4.63;;
30398;SDS011;17195;50.838;7.214;2024-03-23T07:39:12;17.92;;;3.80;;
30398;SDS011;17195;50.838;7.214;2024-03-23T07:41:37;14.32;;;4.50;;
30398;SDS011;17195;50.838;7.214;2024-03-23T07:44:03;18.88;;;4.47;;
30398;SDS011;17195;50.838;7.214;2024-03-23T07:46:28;21.83;;;4.45;;
30398;SDS011;17195;50.838;7.214;2024-03-23T07:48:54;20.10;;;4.13;;
30398;SDS011;17195;50.838;7.214;2024-03-23T07:51:22;16.27;;;5.55;;
30398;SDS011;17195;50.838;7.214;2024-03-23T07:53:48;12.43;;;5.25;;
30398;SDS011;17195;50.838;7.214;2024-03-23T07:56:14;20.13;;;5.97;;
30398;SDS011;17195;50.838;7.214;2024-03-23T07:58:41;19.45;;;6.03;;
30398;SDS011;17195;50.838;7.214;2024-03-23T08:01:10;20.40;;;5.88;;
30398;SDS011;17195;50.838;7.214;2024-03-23T08:03:38;20.23;;;5.63;;
30398;SDS011;17195;50.838;7.214;2024-03-23T08:06:09;13.85;;;5.15;;
30398;SDS011;17195;50.838;7.214;2024-03-23T08:08:38;16.60;;;5.00;;
30398;SDS011;17195;50.838;7.214;2024-03-23T08:11:04;17.45;;;6.03;;
30398;SDS011;17195;50.838;7.214;2024-03-23T08:13:30;22.92;;;6.55;;
30398;SDS011;17195;50.838;7.214;2024-03-23T08:15:56;21.80;;;6.13;;
30398;SDS011;17195;50.838;7.214;2024-03-23T08:18:22;21.98;;;6.65;;
30398;SDS011;17195;50.838;7.214;2024-03-23T08:20:55;22.77;;;6.40;;
30398;SDS011;17195;50.838;7.214;2024-03-23T08:23:27;22.92;;;7.10;;
30398;SDS011;17195;50.838;7.214;2024-03-23T08:26:03;21.27;;;7.53;;
30398;SDS011;17195;50.838;7.214;2024-03-23T08:28:29;17.58;;;6.55;;
30398;SDS011;17195;50.838;7.214;2024-03-23T08:30:56;12.55;;;5.22;;
30398;SDS011;17195;50.838;7.214;2024-03-23T08:33:22;13.57;;;5.65;;
30398;SDS011;17195;50.838;7.214;2024-03-23T08:35:54;15.27;;;5.90;;
30398;SDS011;17195;50.838;7.214;2024-03-23T08:38:21;16.58;;;5.18;;
30398;SDS011;17195;50.838;7.214;2024-03-23T08:40:47;11.18;;;4.07;;
30398;SDS011;17195;50.838;7.214;2024-03-23T08:43:13;9.35;;;3.35;;
30398;SDS011;17195;50.838;7.214;2024-03-23T08:45:38;10.40;;;2.58;;
30398;SDS011;17195;50.838;7.214;2024-03-23T08:48:04;7.30;;;2.22;;
30398;SDS011;17195;50.838;7.214;2024-03-23T08:50:30;10.57;;;4.50;;
30398;SDS011;17195;50.838;7.214;2024-03-23T08:52:56;8.30;;;2.33;;
30398;SDS011;17195;50.838;7.214;2024-03-23T08:55:21;7.90;;;3.47;;
30398;SDS011;17195;50.838;7.214;2024-03-23T08:57:47;8.10;;;2.47;;
30398;SDS011;17195;50.838;7.214;2024-03-23T09:00:12;9.00;;;2.38;;
30398;SDS011;17195;50.838;7.214;2024-03-23T09:02:39;12.85;;;3.03;;
30398;SDS011;17195;50.838;7.214;2024-03-23T09:05:05;13.50;;;4.60;;
30398;SDS011;17195;50.838;7.214;2024-03-23T09:07:31;14.52;;;4.57;;
30398;SDS011;17195;50.838;7.214;2024-03-23T09:09:56;12.80;;;5.07;;
30398;SDS011;17195;50.838;7.214;2024-03-23T09:12:22;15.27;;;5.47;;
30398;SDS011;17195;50.838;7.214;2024-03-23T09:14:48;13.32;;;5.60;;
30398;SDS011;17195;50.838;7.214;2024-03-23T09:17:15;9.35;;;4.43;;
30398;SDS011;17195;50.838;7.214;2024-03-23T09:19:40;12.88;;;4.82;;
30398;SDS011;17195;50.838;7.214;2024-03-23T09:22:06;18.17;;;5.13;;
30398;SDS011;17195;50.838;7.214;2024-03-23T09:24:31;13.63;;;5.43;;
30398;SDS011;17195;50.838;7.214;2024-03-23T09:26:57;18.80;;;5.32;;
30398;SDS011;17195;50.838;7.214;2024-03-23T09:29:22;15.90;;;6.07;;
30398;SDS011;17195;50.838;7.214;2024-03-23T09:31:48;12.38;;;5.70;;
30398;SDS011;17195;50.838;7.214;2024-03-23T09:34:14;24.33;;;10.10;;
30398;SDS011;17195;50.838;7.214;2024-03-23T09:36:40;17.63;;;5.43;;
30398;SDS011;17195;50.838;7.214;2024-03-23T09:39:06;12.80;;;5.10;;
30398;SDS011;17195;50.838;7.214;2024-03-23T09:41:34;14.27;;;4.63;;
30398;SDS011;17195;50.838;7.214;2024-03-23T09:44:00;8.93;;;4.18;;
30398;SDS011;17195;50.838;7.214;2024-03-23T09:46:26;15.68;;;3.95;;
30398;SDS011;17195;50.838;7.214;2024-03-23T09:48:53;17.08;;;3.17;;
30398;SDS011;17195;50.838;7.214;2024-03-23T09:51:20;13.23;;;3.60;;
30398;SDS011;17195;50.838;7.214;2024-03-23T09:53:45;14.20;;;2.80;;
30398;SDS011;17195;50.838;7.214;2024-03-23T09:56:11;11.65;;;3.85;;
30398;SDS011;17195;50.838;7.214;2024-03-23T09:58:36;17.45;;;3.97;;
30398;SDS011;17195;50.838;7.214;2024-03-23T10:01:02;16.55;;;4.22;;
30398;SDS011;17195;50.838;7.214;2024-03-23T10:03:28;20.05;;;4.43;;
30398;SDS011;17195;50.838;7.214;2024-03-23T10:06:01;13.82;;;3.80;;
30398;SDS011;17195;50.838;7.214;2024-03-23T10:08:28;9.35;;;3.15;;
30398;SDS011;17195;50.838;7.214;2024-03-23T10:10:54;17.15;;;3.90;;
30398;SDS011;17195;50.838;7.214;2024-03-23T10:13:26;11.18;;;3.42;;
30398;SDS011;17195;50.838;7.214;2024-03-23T10:15:55;50.38;;;17.52;;
30398;SDS011;17195;50.838;7.214;2024-03-23T10:18:24;10.05;;;3.42;;
30398;SDS011;17195;50.838;7.214;2024-03-23T10:21:06;8.95;;;2.38;;
30398;SDS011;17195;50.838;7.214;2024-03-23T10:23:38;9.85;;;2.55;;
30398;SDS011;17195;50.838;7.214;2024-03-23T10:29:21;12.98;;;2.35;;
30398;SDS011;17195;50.838;7.214;2024-03-23T10:31:33;8.93;;;2.05;;
30398;SDS011;17195;50.838;7.214;2024-03-23T10:34:02;7.57;;;2.03;;
30398;SDS011;17195;50.838;7.214;2024-03-23T10:36:28;4.32;;;1.48;;
30398;SDS011;17195;50.838;7.214;2024-03-23T10:38:55;14.10;;;2.05;;
30398;SDS011;17195;50.838;7.214;2024-03-23T10:41:23;6.10;;;1.60;;
30398;SDS011;17195;50.838;7.214;2024-03-23T10:43:52;10.73;;;2.13;;
30398;SDS011;17195;50.838;7.214;2024-03-23T10:46:20;9.70;;;2.03;;
30398;SDS011;17195;50.838;7.214;2024-03-23T10:48:46;10.63;;;2.22;;
30398;SDS011;17195;50.838;7.214;2024-03-23T10:51:12;9.55;;;1.98;;
30398;SDS011;17195;50.838;7.214;2024-03-23T10:53:39;4.45;;;1.10;;
30398;SDS011;17195;50.838;7.214;2024-03-23T10:56:05;6.35;;;1.30;;
30398;SDS011;17195;50.838;7.214;2024-03-23T10:58:46;5.82;;;1.35;;
30398;SDS011;17195;50.838;7.214;2024-03-23T11:01:14;4.70;;;1.10;;
30398;SDS011;17195;50.838;7.214;2024-03-23T11:03:44;4.82;;;1.38;;
30398;SDS011;17195;50.838;7.214;2024-03-23T11:06:10;4.55;;;1.10;;
30398;SDS011;17195;50.838;7.214;2024-03-23T11:09:00;4.80;;;0.65;;
30398;SDS011;17195;50.838;7.214;2024-03-23T11:11:25;5.90;;;1.00;;
30398;SDS011;17195;50.838;7.214;2024-03-23T11:13:52;2.58;;;1.10;;
30398;SDS011;17195;50.838;7.214;2024-03-23T11:16:28;5.93;;;0.77;;
30398;SDS011;17195;50.838;7.214;2024-03-23T11:21:59;5.38;;;1.40;;
30398;SDS011;17195;50.838;7.214;2024-03-23T11:24:25;6.22;;;1.63;;
30398;SDS011;17195;50.838;7.214;2024-03-23T11:26:50;4.82;;;1.30;;
30398;SDS011;17195;50.838;7.214;2024-03-23T11:29:16;7.57;;;1.30;;
30398;SDS011;17195;50.838;7.214;2024-03-23T11:31:49;6.00;;;1.08;;
30398;SDS011;17195;50.838;7.214;2024-03-23T11:34:16;9.38;;;1.42;;
30398;SDS011;17195;50.838;7.214;2024-03-23T11:36:42;8.38;;;2.10;;
30398;SDS011;17195;50.838;7.214;2024-03-23T11:39:15;3.78;;;1.02;;
30398;SDS011;17195;50.838;7.214;2024-03-23T11:41:59;6.75;;;1.70;;
30398;SDS011;17195;50.838;7.214;2024-03-23T11:44:25;7.90;;;1.58;;
30398;SDS011;17195;50.838;7.214;2024-03-23T11:46:51;6.63;;;1.67;;
30398;SDS011;17195;50.838;7.214;2024-03-23T11:49:27;7.85;;;2.10;;
30398;SDS011;17195;50.838;7.214;2024-03-23T11:51:54;9.35;;;2.20;;
30398;SDS011;17195;50.838;7.214;2024-03-23T11:54:21;6.78;;;2.45;;
30398;SDS011;17195;50.838;7.214;2024-03-23T11:56:54;4.10;;;1.65;;
30398;SDS011;17195;50.838;7.214;2024-03-23T12:01:58;7.70;;;2.20;;
30398;SDS011;17195;50.838;7.214;2024-03-23T12:04:25;7.43;;;1.67;;
30398;SDS011;17195;50.838;7.214;2024-03-23T12:07:10;10.27;;;2.30;;
30398;SDS011;17195;50.838;7.214;2024-03-23T12:12:10;7.72;;;1.98;;
30398;SDS011;17195;50.838;7.214;2024-03-23T12:14:40;8.52;;;2.17;;
30398;SDS011;17195;50.838;7.214;2024-03-23T12:17:07;7.05;;;2.28;;
30398;SDS011;17195;50.838;7.214;2024-03-23T12:19:34;5.30;;;1.00;;
30398;SDS011;17195;50.838;7.214;2024-03-23T12:21:59;3.58;;;1.10;;
30398;SDS011;17195;50.838;7.214;2024-03-23T12:24:26;4.85;;;1.15;;
30398;SDS011;17195;50.838;7.214;2024-03-23T12:26:51;4.82;;;0.80;;
30398;SDS011;17195;50.838;7.214;2024-03-23T12:29:17;4.05;;;1.00;;
30398;SDS011;17195;50.838;7.214;2024-03-23T12:31:43;4.65;;;0.98;;
30398;SDS011;17195;50.838;7.214;2024-03-23T12:34:09;5.65;;;1.15;;
30398;SDS011;17195;50.838;7.214;2024-03-23T12:36:34;4.13;;;1.25;;
30398;SDS011;17195;50.838;7.214;2024-03-23T12:39:00;5.97;;;1.00;;
30398;SDS011;17195;50.838;7.214;2024-03-23T12:41:25;4.97;;;1.80;;
30398;SDS011;17195;50.838;7.214;2024-03-23T12:43:51;7.10;;;1.88;;
30398;SDS011;17195;50.838;7.214;2024-03-23T12:46:16;5.10;;;1.08;;
30398;SDS011;17195;50.838;7.214;2024-03-23T12:48:44;5.97;;;1.23;;
30398;SDS011;17195;50.838;7.214;2024-03-23T12:51:09;5.38;;;1.67;;
30398;SDS011;17195;50.838;7.214;2024-03-23T12:53:35;5.15;;;1.35;;
30398;SDS011;17195;50.838;7.214;2024-03-23T12:56:00;3.33;;;0.93;;
30398;SDS011;17195;50.838;7.214;2024-03-23T12:58:26;3.47;;;0.95;;
30398;SDS011;17195;50.838;7.214;2024-03-23T13:00:52;4.28;;;0.88;;
30398;SDS011;17195;50.838;7.214;2024-03-23T13:03:17;2.17;;;0.90;;
30398;SDS011;17195;50.838;7.214;2024-03-23T13:05:43;2.22;;;0.80;;
30398;SDS011;17195;50.838;7.214;2024-03-23T13:08:08;3.42;;;0.90;;
30398;SDS011;17195;50.838;7.214;2024-03-23T13:10:34;2.20;;;0.80;;
30398;SDS011;17195;50.838;7.214;2024-03-23T13:12:59;2.92;;;0.50;;
30398;SDS011;17195;50.838;7.214;2024-03-23T13:15:25;2.35;;;0.95;;
30398;SDS011;17195;50.838;7.214;2024-03-23T13:17:50;1.83;;;0.40;;
30398;SDS011;17195;50.838;7.214;2024-03-23T13:20:17;1.42;;;0.52;;
30398;SDS011;17195;50.838;7.214;2024-03-23T13:22:42;2.00;;;0.60;;
30398;SDS011;17195;50.838;7.214;2024-03-23T13:25:08;2.80;;;0.40;;
30398;SDS011;17195;50.838;7.214;2024-03-23T13:27:34;2.13;;;0.77;;
30398;SDS011;17195;50.838;7.214;2024-03-23T13:29:59;3.35;;;0.50;;
30398;SDS011;17195;50.838;7.214;2024-03-23T13:32:25;2.08;;;0.43;;
30398;SDS011;17195;50.838;7.214;2024-03-23T13:34:50;2.03;;;0.40;;
30398;SDS011;17195;50.838;7.214;2024-03-23T13:37:16;3.42;;;0.77;;
30398;SDS011;17195;50.838;7.214;2024-03-23T13:39:41;2.45;;;0.82;;
30398;SDS011;17195;50.838;7.214;2024-03-23T13:42:07;2.22;;;0.75;;
30398;SDS011;17195;50.838;7.214;2024-03-23T13:44:34;6.03;;;0.70;;
30398;SDS011;17195;50.838;7.214;2024-03-23T13:46:59;4.50;;;0.60;;
30398;SDS011;17195;50.838;7.214;2024-03-23T13:49:28;4.13;;;1.23;;
30398;SDS011;17195;50.838;7.214;2024-03-23T13:51:56;4.95;;;0.80;;
30398;SDS011;17195;50.838;7.214;2024-03-23T13:54:23;2.53;;;0.60;;
30398;SDS011;17195;50.838;7.214;2024-03-23T13:56:52;5.05;;;0.98;;
30398;SDS011;17195;50.838;7.214;2024-03-23T13:59:19;3.20;;;0.93;;
30398;SDS011;17195;50.838;7.214;2024-03-23T14:01:46;3.08;;;0.70;;
30398;SDS011;17195;50.838;7.214;2024-03-23T14:04:12;3.53;;;1.00;;
30398;SDS011;17195;50.838;7.214;2024-03-23T14:06:38;2.92;;;0.80;;
30398;SDS011;17195;50.838;7.214;2024-03-23T14:09:04;3.70;;;1.08;;
30398;SDS011;17195;50.838;7.214;2024-03-23T14:11:33;2.08;;;0.95;;
30398;SDS011;17195;50.838;7.214;2024-03-23T14:13:59;4.70;;;0.82;;
30398;SDS011;17195;50.838;7.214;2024-03-23T14:16:25;5.22;;;1.30;;
30398;SDS011;17195;50.838;7.214;2024-03-23T14:18:50;3.95;;;1.02;;
30398;SDS011;17195;50.838;7.214;2024-03-23T14:21:16;3.58;;;1.05;;
30398;SDS011;17195;50.838;7.214;2024-03-23T14:23:42;3.75;;;0.98;;
30398;SDS011;17195;50.838;7.214;2024-03-23T14:26:07;4.97;;;1.10;;
30398;SDS011;17195;50.838;7.214;2024-03-23T14:28:33;1.50;;;1.20;;
30398;SDS011;17195;50.838;7.214;2024-03-23T14:31:00;3.97;;;1.15;;
30398;SDS011;17195;50.838;7.214;2024-03-23T14:33:26;5.68;;;1.35;;
30398;SDS011;17195;50.838;7.214;2024-03-23T14:35:52;5.38;;;1.25;;
30398;SDS011;17195;50.838;7.214;2024-03-23T14:38:18;5.30;;;1.30;;
30398;SDS011;17195;50.838;7.214;2024-03-23T14:40:44;5.40;;;1.90;;
30398;SDS011;17195;50.838;7.214;2024-03-23T14:43:10;4.65;;;1.55;;
30398;SDS011;17195;50.838;7.214;2024-03-23T14:45:36;18.48;;;8.63;;
30398;SDS011;17195;50.838;7.214;2024-03-23T14:48:02;4.88;;;1.73;;
30398;SDS011;17195;50.838;7.214;2024-03-23T14:50:27;5.95;;;1.85;;
30398;SDS011;17195;50.838;7.214;2024-03-23T14:52:53;4.97;;;1.50;;
30398;SDS011;17195;50.838;7.214;2024-03-23T14:55:18;6.15;;;1.60;;
30398;SDS011;17195;50.838;7.214;2024-03-23T14:57:44;4.72;;;1.23;;
30398;SDS011;17195;50.838;7.214;2024-03-23T15:00:10;2.90;;;1.30;;
30398;SDS011;17195;50.838;7.214;2024-03-23T15:02:37;4.88;;;1.27;;
30398;SDS011;17195;50.838;7.214;2024-03-23T15:05:03;3.88;;;1.33;;
30398;SDS011;17195;50.838;7.214;2024-03-23T15:07:29;4.68;;;1.00;;
30398;SDS011;17195;50.838;7.214;2024-03-23T15:09:58;3.30;;;0.80;;
30398;SDS011;17195;50.838;7.214;2024-03-23T15:12:23;1.95;;;0.68;;
30398;SDS011;17195;50.838;7.214;2024-03-23T15:14:49;4.45;;;1.10;;
30398;SDS011;17195;50.838;7.214;2024-03-23T15:17:14;4.57;;;1.13;;
30398;SDS011;17195;50.838;7.214;2024-03-23T15:19:40;6.45;;;1.40;;
30398;SDS011;17195;50.838;7.214;2024-03-23T15:22:07;2.85;;;1.08;;
30398;SDS011;17195;50.838;7.214;2024-03-23T15:24:34;2.03;;;0.77;;
30398;SDS011;17195;50.838;7.214;2024-03-23T15:27:01;3.17;;;0.80;;
30398;SDS011;17195;50.838;7.214;2024-03-23T15:29:27;4.03;;;0.90;;
30398;SDS011;17195;50.838;7.214;2024-03-23T15:31:53;2.72;;;1.00;;
30398;SDS011;17195;50.838;7.214;2024-03-23T15:34:19;4.80;;;1.20;;
30398;SDS011;17195;50.838;7.214;2024-03-23T15:36:46;6.03;;;0.93;;
30398;SDS011;17195;50.838;7.214;2024-03-23T15:39:14;2.58;;;1.10;;
30398;SDS011;17195;50.838;7.214;2024-03-23T15:41:40;7.03;;;2.28;;